sensor_id;sensor_type;location;lat;lon;timestamp;temperature;humidity
16267;DHT22;8241;48.786;9.250;2023-04-12T00:00:08;9.70;95.20
16267;DHT22;8241;48.786;9.250;2023-04-12T00:02:36;9.70;95.40
16267;DHT22;8241;48.786;9.250;2023-04-12T00:05:03;9.70;95.20
16267;DHT22;8241;48.786;9.250;2023-04-12T00:07:30;9.70;95.50
16267;DHT22;8241;48.786;9.250;2023-04-12T00:09:57;9.60;95.80
16267;DHT22;8241;48.786;9.250;2023-04-12T00:12:24;9.70;95.80
16267;DHT22;8241;48.786;9.250;2023-04-12T00:14:50;9.70;95.90
16267;DHT22;8241;48.786;9.250;2023-04-12T00:17:18;9.70;95.60
16267;DHT22;8241;48.786;9.250;2023-04-12T00:19:45;9.70;95.90
16267;DHT22;8241;48.786;9.250;2023-04-12T00:22:14;9.60;96.10
16267;DHT22;8241;48.786;9.250;2023-04-12T00:24:41;9.60;96.60
16267;DHT22;8241;48.786;9.250;2023-04-12T00:27:08;9.60;96.70
16267;DHT22;8241;48.786;9.250;2023-04-12T00:29:35;9.60;97.00
16267;DHT22;8241;48.786;9.250;2023-04-12T00:32:01;9.60;97.70
16267;DHT22;8241;48.786;9.250;2023-04-12T00:34:31;9.50;97.90
16267;DHT22;8241;48.786;9.250;2023-04-12T00:36:58;9.50;97.70
16267;DHT22;8241;48.786;9.250;2023-04-12T00:39:25;9.50;97.50
16267;DHT22;8241;48.786;9.250;2023-04-12T00:41:52;9.50;97.90
16267;DHT22;8241;48.786;9.250;2023-04-12T00:44:18;9.50;98.70
16267;DHT22;8241;48.786;9.250;2023-04-12T00:46:45;9.50;99.20
16267;DHT22;8241;48.786;9.250;2023-04-12T00:49:13;9.50;99.90
16267;DHT22;8241;48.786;9.250;2023-04-12T00:51:43;9.50;99.90
16267;DHT22;8241;48.786;9.250;2023-04-12T00:54:10;9.40;99.90
16267;DHT22;8241;48.786;9.250;2023-04-12T00:56:37;9.40;99.90
16267;DHT22;8241;48.786;9.250;2023-04-12T00:59:04;9.40;99.90
16267;DHT22;8241;48.786;9.250;2023-04-12T01:01:32;9.40;99.90
16267;DHT22;8241;48.786;9.250;2023-04-12T01:03:59;9.30;99.90
16267;DHT22;8241;48.786;9.250;2023-04-12T01:06:33;9.30;99.90
16267;DHT22;8241;48.786;9.250;2023-04-12T01:09:07;9.20;99.90
16267;DHT22;8241;48.786;9.250;2023-04-12T01:11:37;9.20;99.90
16267;DHT22;8241;48.786;9.250;2023-04-12T01:14:06;9.20;99.90
16267;DHT22;8241;48.786;9.250;2023-04-12T01:16:34;9.10;99.90
16267;DHT22;8241;48.786;9.250;2023-04-12T01:19:10;9.10;99.90
16267;DHT22;8241;48.786;9.250;2023-04-12T01:21:44;9.10;99.90
16267;DHT22;8241;48.786;9.250;2023-04-12T01:24:22;9.00;99.90
16267;DHT22;8241;48.786;9.250;2023-04-12T01:26:50;9.00;99.90
16267;DHT22;8241;48.786;9.250;2023-04-12T01:29:19;8.90;99.90
16267;DHT22;8241;48.786;9.250;2023-04-12T01:31:48;8.90;99.90
16267;DHT22;8241;48.786;9.250;2023-04-12T01:34:15;8.90;99.90
16267;DHT22;8241;48.786;9.250;2023-04-12T01:36:46;8.90;99.90
16267;DHT22;8241;48.786;9.250;2023-04-12T01:39:12;8.80;99.90
16267;DHT22;8241;48.786;9.250;2023-04-12T01:41:41;8.80;99.90
16267;DHT22;8241;48.786;9.250;2023-04-12T01:44:11;8.70;99.90
16267;DHT22;8241;48.786;9.250;2023-04-12T01:46:39;8.80;99.90
16267;DHT22;8241;48.786;9.250;2023-04-12T01:49:07;8.70;99.90
16267;DHT22;8241;48.786;9.250;2023-04-12T01:51:38;8.70;99.90
16267;DHT22;8241;48.786;9.250;2023-04-12T01:54:10;8.60;99.90
16267;DHT22;8241;48.786;9.250;2023-04-12T01:56:39;8.70;99.90
16267;DHT22;8241;48.786;9.250;2023-04-12T01:59:07;8.60;99.90
16267;DHT22;8241;48.786;9.250;2023-04-12T02:01:34;8.60;99.90
16267;DHT22;8241;48.786;9.250;2023-04-12T02:04:03;8.60;99.90
16267;DHT22;8241;48.786;9.250;2023-04-12T02:06:30;8.60;99.90
16267;DHT22;8241;48.786;9.250;2023-04-12T02:08:58;8.70;99.90
16267;DHT22;8241;48.786;9.250;2023-04-12T02:11:26;8.70;99.90
16267;DHT22;8241;48.786;9.250;2023-04-12T02:13:53;8.60;99.90
16267;DHT22;8241;48.786;9.250;2023-04-12T02:16:20;8.60;99.90
16267;DHT22;8241;48.786;9.250;2023-04-12T02:18:47;8.60;99.90
16267;DHT22;8241;48.786;9.250;2023-04-12T02:21:15;8.60;99.90
16267;DHT22;8241;48.786;9.250;2023-04-12T02:23:42;8.60;99.90
16267;DHT22;8241;48.786;9.250;2023-04-12T02:26:10;8.50;99.90
16267;DHT22;8241;48.786;9.250;2023-04-12T02:28:37;8.50;99.90
16267;DHT22;8241;48.786;9.250;2023-04-12T02:31:05;8.40;99.90
16267;DHT22;8241;48.786;9.250;2023-04-12T02:33:34;8.30;99.90
16267;DHT22;8241;48.786;9.250;2023-04-12T02:36:02;8.30;99.90
16267;DHT22;8241;48.786;9.250;2023-04-12T02:38:30;8.20;99.90
16267;DHT22;8241;48.786;9.250;2023-04-12T02:41:00;8.20;99.90
16267;DHT22;8241;48.786;9.250;2023-04-12T02:43:28;8.20;99.90
16267;DHT22;8241;48.786;9.250;2023-04-12T02:45:58;8.20;99.90
16267;DHT22;8241;48.786;9.250;2023-04-12T02:48:25;8.20;99.90
16267;DHT22;8241;48.786;9.250;2023-04-12T02:50:52;8.10;99.90
16267;DHT22;8241;48.786;9.250;2023-04-12T02:53:22;8.10;99.90
16267;DHT22;8241;48.786;9.250;2023-04-12T02:56:04;8.10;99.90
16267;DHT22;8241;48.786;9.250;2023-04-12T02:58:32;8.10;99.90
16267;DHT22;8241;48.786;9.250;2023-04-12T03:00:59;8.10;99.90
16267;DHT22;8241;48.786;9.250;2023-04-12T03:03:31;8.00;99.90
16267;DHT22;8241;48.786;9.250;2023-04-12T03:06:06;8.00;99.90
16267;DHT22;8241;48.786;9.250;2023-04-12T03:08:35;8.00;99.90
16267;DHT22;8241;48.786;9.250;2023-04-12T03:11:04;8.00;99.90
16267;DHT22;8241;48.786;9.250;2023-04-12T03:13:30;8.00;99.90
16267;DHT22;8241;48.786;9.250;2023-04-12T03:15:57;8.00;99.90
16267;DHT22;8241;48.786;9.250;2023-04-12T03:18:33;8.00;99.90
16267;DHT22;8241;48.786;9.250;2023-04-12T03:21:00;8.00;99.90
16267;DHT22;8241;48.786;9.250;2023-04-12T03:23:29;8.00;99.90
16267;DHT22;8241;48.786;9.250;2023-04-12T03:26:14;8.00;99.90
16267;DHT22;8241;48.786;9.250;2023-04-12T03:28:57;8.00;99.90
16267;DHT22;8241;48.786;9.250;2023-04-12T03:31:25;8.00;99.90
16267;DHT22;8241;48.786;9.250;2023-04-12T03:33:56;8.00;99.90
16267;DHT22;8241;48.786;9.250;2023-04-12T03:36:23;8.00;99.90
16267;DHT22;8241;48.786;9.250;2023-04-12T03:38:56;8.10;99.90
16267;DHT22;8241;48.786;9.250;2023-04-12T03:41:24;8.10;99.90
16267;DHT22;8241;48.786;9.250;2023-04-12T03:43:51;8.20;99.90
16267;DHT22;8241;48.786;9.250;2023-04-12T03:46:18;8.20;99.90
16267;DHT22;8241;48.786;9.250;2023-04-12T03:48:52;8.20;99.90
16267;DHT22;8241;48.786;9.250;2023-04-12T03:51:21;8.30;99.90
16267;DHT22;8241;48.786;9.250;2023-04-12T03:53:54;8.30;99.90
16267;DHT22;8241;48.786;9.250;2023-04-12T03:56:21;8.30;99.90
16267;DHT22;8241;48.786;9.250;2023-04-12T03:58:52;8.30;99.90
16267;DHT22;8241;48.786;9.250;2023-04-12T04:01:20;8.30;99.90
16267;DHT22;8241;48.786;9.250;2023-04-12T04:03:49;8.30;99.90
16267;DHT22;8241;48.786;9.250;2023-04-12T04:06:24;8.30;99.90
16267;DHT22;8241;48.786;9.250;2023-04-12T04:08:54;8.30;99.90
16267;DHT22;8241;48.786;9.250;2023-04-12T04:11:21;8.20;99.90
16267;DHT22;8241;48.786;9.250;2023-04-12T04:13:53;8.20;99.90
16267;DHT22;8241;48.786;9.250;2023-04-12T04:16:20;8.20;99.90
16267;DHT22;8241;48.786;9.250;2023-04-12T04:18:49;8.20;99.90
16267;DHT22;8241;48.786;9.250;2023-04-12T04:21:18;8.20;99.90
16267;DHT22;8241;48.786;9.250;2023-04-12T04:23:48;8.20;99.90
16267;DHT22;8241;48.786;9.250;2023-04-12T04:26:16;8.20;99.90
16267;DHT22;8241;48.786;9.250;2023-04-12T04:28:57;8.20;99.90
16267;DHT22;8241;48.786;9.250;2023-04-12T04:31:29;8.20;99.90
16267;DHT22;8241;48.786;9.250;2023-04-12T04:33:59;8.20;99.90
16267;DHT22;8241;48.786;9.250;2023-04-12T04:36:31;8.20;99.90
16267;DHT22;8241;48.786;9.250;2023-04-12T04:38:58;8.20;99.90
16267;DHT22;8241;48.786;9.250;2023-04-12T04:41:39;8.20;99.90
16267;DHT22;8241;48.786;9.250;2023-04-12T04:44:17;8.20;99.90
16267;DHT22;8241;48.786;9.250;2023-04-12T04:46:52;8.20;99.90
16267;DHT22;8241;48.786;9.250;2023-04-12T04:49:20;8.10;99.90
16267;DHT22;8241;48.786;9.250;2023-04-12T04:51:46;8.20;99.90
16267;DHT22;8241;48.786;9.250;2023-04-12T04:54:14;8.20;99.90
16267;DHT22;8241;48.786;9.250;2023-04-12T04:56:41;8.10;99.90
16267;DHT22;8241;48.786;9.250;2023-04-12T04:59:09;8.10;99.90
16267;DHT22;8241;48.786;9.250;2023-04-12T05:01:37;8.00;99.90
16267;DHT22;8241;48.786;9.250;2023-04-12T05:04:05;8.20;99.90
16267;DHT22;8241;48.786;9.250;2023-04-12T05:06:32;8.20;99.90
16267;DHT22;8241;48.786;9.250;2023-04-12T05:09:00;8.20;99.90
16267;DHT22;8241;48.786;9.250;2023-04-12T05:11:30;8.20;99.90
16267;DHT22;8241;48.786;9.250;2023-04-12T05:13:57;8.10;99.90
16267;DHT22;8241;48.786;9.250;2023-04-12T05:16:24;8.20;99.90
16267;DHT22;8241;48.786;9.250;2023-04-12T05:18:52;8.10;99.90
16267;DHT22;8241;48.786;9.250;2023-04-12T05:21:20;8.10;99.90
16267;DHT22;8241;48.786;9.250;2023-04-12T05:23:47;8.10;99.90
16267;DHT22;8241;48.786;9.250;2023-04-12T05:26:14;8.10;99.90
16267;DHT22;8241;48.786;9.250;2023-04-12T05:28:45;8.10;99.90
16267;DHT22;8241;48.786;9.250;2023-04-12T05:31:13;8.30;99.90
16267;DHT22;8241;48.786;9.250;2023-04-12T05:33:40;8.10;99.90
16267;DHT22;8241;48.786;9.250;2023-04-12T05:36:09;8.10;99.90
16267;DHT22;8241;48.786;9.250;2023-04-12T05:38:36;8.10;99.90
16267;DHT22;8241;48.786;9.250;2023-04-12T05:41:09;8.10;99.90
16267;DHT22;8241;48.786;9.250;2023-04-12T05:43:36;8.20;99.90
16267;DHT22;8241;48.786;9.250;2023-04-12T05:46:04;8.20;99.90
16267;DHT22;8241;48.786;9.250;2023-04-12T05:48:33;8.20;99.90
16267;DHT22;8241;48.786;9.250;2023-04-12T05:51:02;8.30;99.90
16267;DHT22;8241;48.786;9.250;2023-04-12T05:53:31;8.30;99.90
16267;DHT22;8241;48.786;9.250;2023-04-12T05:56:01;8.30;99.90
16267;DHT22;8241;48.786;9.250;2023-04-12T05:58:29;8.30;99.90
16267;DHT22;8241;48.786;9.250;2023-04-12T06:00:56;8.30;99.90
16267;DHT22;8241;48.786;9.250;2023-04-12T06:03:23;8.30;99.90
16267;DHT22;8241;48.786;9.250;2023-04-12T06:05:52;8.40;99.90
16267;DHT22;8241;48.786;9.250;2023-04-12T06:08:19;8.40;99.90
16267;DHT22;8241;48.786;9.250;2023-04-12T06:10:47;8.40;99.90
16267;DHT22;8241;48.786;9.250;2023-04-12T06:13:14;8.50;99.90
16267;DHT22;8241;48.786;9.250;2023-04-12T06:15:41;8.50;99.90
16267;DHT22;8241;48.786;9.250;2023-04-12T06:18:09;8.60;99.90
16267;DHT22;8241;48.786;9.250;2023-04-12T06:20:37;8.60;99.90
16267;DHT22;8241;48.786;9.250;2023-04-12T06:23:04;8.70;99.90
16267;DHT22;8241;48.786;9.250;2023-04-12T06:25:31;8.70;99.90
16267;DHT22;8241;48.786;9.250;2023-04-12T06:27:59;8.70;99.90
16267;DHT22;8241;48.786;9.250;2023-04-12T06:30:27;8.80;99.90
16267;DHT22;8241;48.786;9.250;2023-04-12T06:32:54;8.80;99.90
16267;DHT22;8241;48.786;9.250;2023-04-12T06:35:21;8.80;99.90
16267;DHT22;8241;48.786;9.250;2023-04-12T06:37:48;8.90;99.90
16267;DHT22;8241;48.786;9.250;2023-04-12T06:40:15;8.90;99.90
16267;DHT22;8241;48.786;9.250;2023-04-12T06:42:42;8.90;99.90
16267;DHT22;8241;48.786;9.250;2023-04-12T06:45:10;8.90;99.90
16267;DHT22;8241;48.786;9.250;2023-04-12T06:47:37;9.00;99.90
16267;DHT22;8241;48.786;9.250;2023-04-12T06:50:04;9.00;99.90
16267;DHT22;8241;48.786;9.250;2023-04-12T06:52:31;8.90;99.90
16267;DHT22;8241;48.786;9.250;2023-04-12T06:54:58;9.00;99.90
16267;DHT22;8241;48.786;9.250;2023-04-12T06:57:24;9.00;99.90
16267;DHT22;8241;48.786;9.250;2023-04-12T06:59:51;9.00;99.90
16267;DHT22;8241;48.786;9.250;2023-04-12T07:02:19;9.10;99.90
16267;DHT22;8241;48.786;9.250;2023-04-12T07:04:46;9.10;99.90
16267;DHT22;8241;48.786;9.250;2023-04-12T07:07:17;9.10;99.90
16267;DHT22;8241;48.786;9.250;2023-04-12T07:09:45;8.90;99.90
16267;DHT22;8241;48.786;9.250;2023-04-12T07:12:12;9.00;99.90
16267;DHT22;8241;48.786;9.250;2023-04-12T07:14:39;9.10;99.90
16267;DHT22;8241;48.786;9.250;2023-04-12T07:17:06;9.10;99.90
16267;DHT22;8241;48.786;9.250;2023-04-12T07:19:34;9.10;99.90
16267;DHT22;8241;48.786;9.250;2023-04-12T07:22:01;9.10;99.90
16267;DHT22;8241;48.786;9.250;2023-04-12T07:24:28;9.20;99.90
16267;DHT22;8241;48.786;9.250;2023-04-12T07:26:54;9.30;99.90
16267;DHT22;8241;48.786;9.250;2023-04-12T07:29:21;9.30;99.90
16267;DHT22;8241;48.786;9.250;2023-04-12T07:31:48;9.30;99.90
16267;DHT22;8241;48.786;9.250;2023-04-12T07:34:15;9.30;99.90
16267;DHT22;8241;48.786;9.250;2023-04-12T07:36:44;9.30;99.90
16267;DHT22;8241;48.786;9.250;2023-04-12T07:39:10;9.30;99.90
16267;DHT22;8241;48.786;9.250;2023-04-12T07:41:37;9.30;99.90
16267;DHT22;8241;48.786;9.250;2023-04-12T07:44:05;9.40;99.90
16267;DHT22;8241;48.786;9.250;2023-04-12T07:46:31;9.40;99.90
16267;DHT22;8241;48.786;9.250;2023-04-12T07:48:58;9.40;99.90
16267;DHT22;8241;48.786;9.250;2023-04-12T07:51:25;9.40;99.90
16267;DHT22;8241;48.786;9.250;2023-04-12T07:53:53;9.30;99.90
16267;DHT22;8241;48.786;9.250;2023-04-12T07:56:20;9.40;99.90
16267;DHT22;8241;48.786;9.250;2023-04-12T07:58:47;9.40;99.90
16267;DHT22;8241;48.786;9.250;2023-04-12T08:01:14;9.50;99.90
16267;DHT22;8241;48.786;9.250;2023-04-12T08:03:41;9.50;99.90
16267;DHT22;8241;48.786;9.250;2023-04-12T08:06:08;9.50;99.90
16267;DHT22;8241;48.786;9.250;2023-04-12T08:08:35;9.60;99.90
16267;DHT22;8241;48.786;9.250;2023-04-12T08:11:03;9.60;99.90
16267;DHT22;8241;48.786;9.250;2023-04-12T08:13:30;9.60;99.90
16267;DHT22;8241;48.786;9.250;2023-04-12T08:15:57;9.70;99.90
16267;DHT22;8241;48.786;9.250;2023-04-12T08:18:24;9.70;99.90
16267;DHT22;8241;48.786;9.250;2023-04-12T08:20:51;9.80;99.90
16267;DHT22;8241;48.786;9.250;2023-04-12T08:23:18;9.80;99.90
16267;DHT22;8241;48.786;9.250;2023-04-12T08:25:45;9.90;99.90
16267;DHT22;8241;48.786;9.250;2023-04-12T08:28:13;9.90;99.90
16267;DHT22;8241;48.786;9.250;2023-04-12T08:30:41;9.90;99.90
16267;DHT22;8241;48.786;9.250;2023-04-12T08:33:09;10.00;99.90
16267;DHT22;8241;48.786;9.250;2023-04-12T08:35:36;10.00;99.90
16267;DHT22;8241;48.786;9.250;2023-04-12T08:38:04;10.00;99.90
16267;DHT22;8241;48.786;9.250;2023-04-12T08:40:32;10.00;99.90
16267;DHT22;8241;48.786;9.250;2023-04-12T08:43:00;10.00;99.90
16267;DHT22;8241;48.786;9.250;2023-04-12T08:45:29;10.00;99.90
16267;DHT22;8241;48.786;9.250;2023-04-12T08:47:58;10.00;99.90
16267;DHT22;8241;48.786;9.250;2023-04-12T08:50:25;10.00;99.90
16267;DHT22;8241;48.786;9.250;2023-04-12T08:52:52;10.10;99.90
16267;DHT22;8241;48.786;9.250;2023-04-12T08:55:19;10.10;99.90
16267;DHT22;8241;48.786;9.250;2023-04-12T08:57:46;10.10;99.90
16267;DHT22;8241;48.786;9.250;2023-04-12T09:00:13;10.20;99.90
16267;DHT22;8241;48.786;9.250;2023-04-12T09:02:42;10.20;99.90
16267;DHT22;8241;48.786;9.250;2023-04-12T09:05:11;10.30;99.90
16267;DHT22;8241;48.786;9.250;2023-04-12T09:07:38;10.30;99.90
16267;DHT22;8241;48.786;9.250;2023-04-12T09:10:06;10.30;99.90
16267;DHT22;8241;48.786;9.250;2023-04-12T09:12:33;10.30;99.90
16267;DHT22;8241;48.786;9.250;2023-04-12T09:15:06;10.40;99.90
16267;DHT22;8241;48.786;9.250;2023-04-12T09:17:34;10.40;99.90
16267;DHT22;8241;48.786;9.250;2023-04-12T09:20:11;10.40;99.90
16267;DHT22;8241;48.786;9.250;2023-04-12T09:22:47;10.50;99.90
16267;DHT22;8241;48.786;9.250;2023-04-12T09:25:14;10.50;99.90
16267;DHT22;8241;48.786;9.250;2023-04-12T09:27:45;10.60;99.90
16267;DHT22;8241;48.786;9.250;2023-04-12T09:30:13;10.60;99.90
16267;DHT22;8241;48.786;9.250;2023-04-12T09:32:39;10.70;99.90
16267;DHT22;8241;48.786;9.250;2023-04-12T09:35:07;10.80;99.90
16267;DHT22;8241;48.786;9.250;2023-04-12T09:37:35;10.80;99.90
16267;DHT22;8241;48.786;9.250;2023-04-12T09:40:02;10.90;99.90
16267;DHT22;8241;48.786;9.250;2023-04-12T09:42:30;10.90;99.90
16267;DHT22;8241;48.786;9.250;2023-04-12T09:44:56;11.10;99.90
16267;DHT22;8241;48.786;9.250;2023-04-12T09:47:34;11.10;99.90
16267;DHT22;8241;48.786;9.250;2023-04-12T09:50:01;11.20;99.90
16267;DHT22;8241;48.786;9.250;2023-04-12T09:52:35;11.20;99.90
16267;DHT22;8241;48.786;9.250;2023-04-12T09:55:04;11.20;99.90
16267;DHT22;8241;48.786;9.250;2023-04-12T09:57:34;11.30;99.90
16267;DHT22;8241;48.786;9.250;2023-04-12T10:00:02;11.40;99.90
16267;DHT22;8241;48.786;9.250;2023-04-12T10:02:37;11.40;99.90
16267;DHT22;8241;48.786;9.250;2023-04-12T10:05:04;11.50;99.90
16267;DHT22;8241;48.786;9.250;2023-04-12T10:07:31;11.50;99.90
16267;DHT22;8241;48.786;9.250;2023-04-12T10:10:03;11.60;99.90
16267;DHT22;8241;48.786;9.250;2023-04-12T10:12:31;11.60;99.90
16267;DHT22;8241;48.786;9.250;2023-04-12T10:14:58;11.70;99.90
16267;DHT22;8241;48.786;9.250;2023-04-12T10:17:26;11.80;99.90
16267;DHT22;8241;48.786;9.250;2023-04-12T10:19:56;11.90;99.90
16267;DHT22;8241;48.786;9.250;2023-04-12T10:22:24;12.00;99.90
16267;DHT22;8241;48.786;9.250;2023-04-12T10:24:52;12.10;99.90
16267;DHT22;8241;48.786;9.250;2023-04-12T10:27:24;12.20;99.90
16267;DHT22;8241;48.786;9.250;2023-04-12T10:29:51;12.30;99.90
16267;DHT22;8241;48.786;9.250;2023-04-12T10:32:19;12.30;99.90
16267;DHT22;8241;48.786;9.250;2023-04-12T10:34:49;12.40;99.90
16267;DHT22;8241;48.786;9.250;2023-04-12T10:37:16;12.50;99.90
16267;DHT22;8241;48.786;9.250;2023-04-12T10:39:43;12.60;99.90
16267;DHT22;8241;48.786;9.250;2023-04-12T10:42:22;12.70;99.90
16267;DHT22;8241;48.786;9.250;2023-04-12T10:44:50;12.80;99.90
16267;DHT22;8241;48.786;9.250;2023-04-12T10:56:00;13.20;99.90
16267;DHT22;8241;48.786;9.250;2023-04-12T10:58:53;13.10;99.90
16267;DHT22;8241;48.786;9.250;2023-04-12T11:01:23;13.10;99.90
16267;DHT22;8241;48.786;9.250;2023-04-12T11:04:09;13.10;99.90
16267;DHT22;8241;48.786;9.250;2023-04-12T11:09:42;13.30;99.90
16267;DHT22;8241;48.786;9.250;2023-04-12T11:12:14;13.40;99.90
16267;DHT22;8241;48.786;9.250;2023-04-12T11:14:43;13.50;99.90
16267;DHT22;8241;48.786;9.250;2023-04-12T11:17:21;13.60;99.90
16267;DHT22;8241;48.786;9.250;2023-04-12T11:19:49;13.60;99.90
16267;DHT22;8241;48.786;9.250;2023-04-12T11:22:17;13.60;99.90
16267;DHT22;8241;48.786;9.250;2023-04-12T11:24:44;13.70;99.90
16267;DHT22;8241;48.786;9.250;2023-04-12T11:27:12;13.70;99.90
16267;DHT22;8241;48.786;9.250;2023-04-12T11:29:40;13.70;99.90
16267;DHT22;8241;48.786;9.250;2023-04-12T11:32:09;13.80;99.90
16267;DHT22;8241;48.786;9.250;2023-04-12T11:34:38;13.80;99.90
16267;DHT22;8241;48.786;9.250;2023-04-12T11:37:05;13.80;99.90
16267;DHT22;8241;48.786;9.250;2023-04-12T11:39:33;13.80;99.90
16267;DHT22;8241;48.786;9.250;2023-04-12T11:42:00;13.80;99.90
16267;DHT22;8241;48.786;9.250;2023-04-12T11:44:28;13.80;99.90
16267;DHT22;8241;48.786;9.250;2023-04-12T11:46:56;13.80;99.90
16267;DHT22;8241;48.786;9.250;2023-04-12T11:49:23;13.80;99.90
16267;DHT22;8241;48.786;9.250;2023-04-12T11:52:01;13.80;99.90
16267;DHT22;8241;48.786;9.250;2023-04-12T11:54:29;13.80;99.90
16267;DHT22;8241;48.786;9.250;2023-04-12T11:56:56;13.90;99.90
16267;DHT22;8241;48.786;9.250;2023-04-12T11:59:29;13.80;99.90
16267;DHT22;8241;48.786;9.250;2023-04-12T12:01:58;14.00;99.90
16267;DHT22;8241;48.786;9.250;2023-04-12T12:04:25;14.00;99.90
16267;DHT22;8241;48.786;9.250;2023-04-12T12:06:52;14.10;99.90
16267;DHT22;8241;48.786;9.250;2023-04-12T12:09:22;14.10;99.90
16267;DHT22;8241;48.786;9.250;2023-04-12T12:11:49;14.20;99.90
16267;DHT22;8241;48.786;9.250;2023-04-12T12:14:17;14.30;99.90
16267;DHT22;8241;48.786;9.250;2023-04-12T12:16:50;14.30;99.90
16267;DHT22;8241;48.786;9.250;2023-04-12T12:19:25;14.30;99.90
16267;DHT22;8241;48.786;9.250;2023-04-12T12:21:51;14.40;99.90
16267;DHT22;8241;48.786;9.250;2023-04-12T12:24:18;14.40;99.90
16267;DHT22;8241;48.786;9.250;2023-04-12T12:26:49;14.50;99.90
16267;DHT22;8241;48.786;9.250;2023-04-12T12:29:16;14.60;99.90
16267;DHT22;8241;48.786;9.250;2023-04-12T12:31:44;14.70;99.90
16267;DHT22;8241;48.786;9.250;2023-04-12T12:34:12;14.80;99.90
16267;DHT22;8241;48.786;9.250;2023-04-12T12:36:39;14.80;99.80
16267;DHT22;8241;48.786;9.250;2023-04-12T12:39:06;14.70;99.70
16267;DHT22;8241;48.786;9.250;2023-04-12T12:41:34;14.70;99.80
16267;DHT22;8241;48.786;9.250;2023-04-12T12:44:03;14.70;99.90
16267;DHT22;8241;48.786;9.250;2023-04-12T12:46:31;14.80;99.90
16267;DHT22;8241;48.786;9.250;2023-04-12T12:48:58;15.00;99.90
16267;DHT22;8241;48.786;9.250;2023-04-12T12:51:25;15.00;99.90
16267;DHT22;8241;48.786;9.250;2023-04-12T12:53:53;15.00;99.10
16267;DHT22;8241;48.786;9.250;2023-04-12T12:56:20;15.00;99.10
16267;DHT22;8241;48.786;9.250;2023-04-12T12:58:47;15.10;99.30
16267;DHT22;8241;48.786;9.250;2023-04-12T13:01:16;15.20;99.10
16267;DHT22;8241;48.786;9.250;2023-04-12T13:03:43;15.20;99.00
16267;DHT22;8241;48.786;9.250;2023-04-12T13:06:10;15.20;99.20
16267;DHT22;8241;48.786;9.250;2023-04-12T13:08:37;15.20;99.30
16267;DHT22;8241;48.786;9.250;2023-04-12T13:11:04;15.20;99.60
16267;DHT22;8241;48.786;9.250;2023-04-12T13:13:31;15.20;98.70
16267;DHT22;8241;48.786;9.250;2023-04-12T13:15:57;15.20;98.70
16267;DHT22;8241;48.786;9.250;2023-04-12T13:18:26;15.20;98.30
16267;DHT22;8241;48.786;9.250;2023-04-12T13:20:52;15.20;98.20
16267;DHT22;8241;48.786;9.250;2023-04-12T13:23:19;15.20;98.40
16267;DHT22;8241;48.786;9.250;2023-04-12T13:25:46;15.10;98.50
16267;DHT22;8241;48.786;9.250;2023-04-12T13:28:13;15.10;99.00
16267;DHT22;8241;48.786;9.250;2023-04-12T13:30:41;15.10;98.80
16267;DHT22;8241;48.786;9.250;2023-04-12T13:33:08;15.10;98.40
16267;DHT22;8241;48.786;9.250;2023-04-12T13:35:36;15.00;98.50
16267;DHT22;8241;48.786;9.250;2023-04-12T13:38:03;15.00;98.30
16267;DHT22;8241;48.786;9.250;2023-04-12T13:40:30;15.00;98.80
16267;DHT22;8241;48.786;9.250;2023-04-12T13:42:57;15.10;98.60
16267;DHT22;8241;48.786;9.250;2023-04-12T13:45:24;15.20;98.60
16267;DHT22;8241;48.786;9.250;2023-04-12T13:47:51;15.40;98.70
16267;DHT22;8241;48.786;9.250;2023-04-12T13:50:20;15.50;98.30
16267;DHT22;8241;48.786;9.250;2023-04-12T13:52:48;15.50;98.00
16267;DHT22;8241;48.786;9.250;2023-04-12T13:55:15;15.50;97.90
16267;DHT22;8241;48.786;9.250;2023-04-12T13:57:42;15.60;98.40
16267;DHT22;8241;48.786;9.250;2023-04-12T14:00:09;15.70;98.50
16267;DHT22;8241;48.786;9.250;2023-04-12T14:02:36;15.70;98.00
16267;DHT22;8241;48.786;9.250;2023-04-12T14:05:05;15.70;98.40
16267;DHT22;8241;48.786;9.250;2023-04-12T14:07:32;15.70;98.10
16267;DHT22;8241;48.786;9.250;2023-04-12T14:10:00;15.70;97.40
16267;DHT22;8241;48.786;9.250;2023-04-12T14:12:27;15.60;97.50
16267;DHT22;8241;48.786;9.250;2023-04-12T14:14:54;15.50;97.70
16267;DHT22;8241;48.786;9.250;2023-04-12T14:17:21;15.40;97.90
16267;DHT22;8241;48.786;9.250;2023-04-12T14:19:48;15.40;97.50
16267;DHT22;8241;48.786;9.250;2023-04-12T14:22:16;15.40;98.20
16267;DHT22;8241;48.786;9.250;2023-04-12T14:24:43;15.70;97.50
16267;DHT22;8241;48.786;9.250;2023-04-12T14:27:12;16.00;97.10
16267;DHT22;8241;48.786;9.250;2023-04-12T14:29:40;16.30;95.90
16267;DHT22;8241;48.786;9.250;2023-04-12T14:32:07;16.70;95.50
16267;DHT22;8241;48.786;9.250;2023-04-12T14:34:34;16.70;95.50
16267;DHT22;8241;48.786;9.250;2023-04-12T14:37:02;16.80;94.90
16267;DHT22;8241;48.786;9.250;2023-04-12T14:39:29;16.70;94.70
16267;DHT22;8241;48.786;9.250;2023-04-12T14:41:56;16.50;94.90
16267;DHT22;8241;48.786;9.250;2023-04-12T14:44:24;16.30;95.50
16267;DHT22;8241;48.786;9.250;2023-04-12T14:46:51;16.40;95.10
16267;DHT22;8241;48.786;9.250;2023-04-12T14:49:18;16.50;95.70
16267;DHT22;8241;48.786;9.250;2023-04-12T14:51:45;16.80;95.50
16267;DHT22;8241;48.786;9.250;2023-04-12T14:54:12;16.80;94.70
16267;DHT22;8241;48.786;9.250;2023-04-12T14:56:39;16.70;94.80
16267;DHT22;8241;48.786;9.250;2023-04-12T14:59:06;16.60;94.40
16267;DHT22;8241;48.786;9.250;2023-04-12T15:01:34;16.60;95.00
16267;DHT22;8241;48.786;9.250;2023-04-12T15:04:02;16.60;94.60
16267;DHT22;8241;48.786;9.250;2023-04-12T15:06:30;16.50;94.60
16267;DHT22;8241;48.786;9.250;2023-04-12T15:09:00;16.30;94.70
16267;DHT22;8241;48.786;9.250;2023-04-12T15:11:28;16.20;95.20
16267;DHT22;8241;48.786;9.250;2023-04-12T15:14:00;16.60;95.60
16267;DHT22;8241;48.786;9.250;2023-04-12T15:16:28;16.20;95.00
16267;DHT22;8241;48.786;9.250;2023-04-12T15:18:56;16.20;94.80
16267;DHT22;8241;48.786;9.250;2023-04-12T15:21:23;16.20;94.90
16267;DHT22;8241;48.786;9.250;2023-04-12T15:23:50;16.10;95.10
16267;DHT22;8241;48.786;9.250;2023-04-12T15:26:17;16.10;95.70
16267;DHT22;8241;48.786;9.250;2023-04-12T15:28:44;15.60;96.40
16267;DHT22;8241;48.786;9.250;2023-04-12T15:31:11;14.90;99.90
16267;DHT22;8241;48.786;9.250;2023-04-12T15:33:39;14.10;99.90
16267;DHT22;8241;48.786;9.250;2023-04-12T15:36:08;13.50;99.90
16267;DHT22;8241;48.786;9.250;2023-04-12T15:38:39;13.20;99.90
16267;DHT22;8241;48.786;9.250;2023-04-12T15:41:06;12.80;99.90
16267;DHT22;8241;48.786;9.250;2023-04-12T15:43:35;12.60;99.90
16267;DHT22;8241;48.786;9.250;2023-04-12T15:46:02;12.40;99.90
16267;DHT22;8241;48.786;9.250;2023-04-12T15:48:29;12.30;99.90
16267;DHT22;8241;48.786;9.250;2023-04-12T15:50:56;12.20;99.90
16267;DHT22;8241;48.786;9.250;2023-04-12T15:53:25;12.10;99.90
16267;DHT22;8241;48.786;9.250;2023-04-12T15:55:52;12.10;99.90
16267;DHT22;8241;48.786;9.250;2023-04-12T15:58:19;12.10;99.90
16267;DHT22;8241;48.786;9.250;2023-04-12T16:00:47;12.10;99.90
16267;DHT22;8241;48.786;9.250;2023-04-12T16:03:14;12.10;99.90
16267;DHT22;8241;48.786;9.250;2023-04-12T16:05:44;12.10;99.90
16267;DHT22;8241;48.786;9.250;2023-04-12T16:08:11;12.20;99.90
16267;DHT22;8241;48.786;9.250;2023-04-12T16:10:39;12.20;99.90
16267;DHT22;8241;48.786;9.250;2023-04-12T16:13:06;12.20;99.90